createdAt,value
2023-04-03T00:04:49.763Z,2.15
2023-04-03T00:09:50.514Z,2.23
2023-04-03T00:14:51.449Z,2.23
2023-04-03T00:19:55.067Z,2.24
2023-04-03T00:24:55.931Z,2.36
2023-04-03T00:29:56.798Z,2.27
2023-04-03T00:34:57.612Z,2.37
2023-04-03T00:39:58.617Z,2.45
2023-04-03T00:45:46.748Z,2.43
2023-04-03T00:50:48.820Z,2.37
2023-04-03T00:55:52.569Z,2.37
2023-04-03T01:00:58.230Z,2.38
2023-04-03T01:05:59.435Z,2.29
2023-04-03T01:11:00.804Z,2.39
2023-04-03T01:16:05.456Z,2.42
2023-04-03T01:22:49.711Z,2.49
2023-04-03T01:27:50.778Z,2.54
2023-04-03T01:32:51.696Z,2.65
2023-04-03T01:37:52.619Z,2.36
2023-04-03T01:42:53.448Z,2.45
2023-04-03T01:47:54.703Z,2.40
2023-04-03T01:52:58.734Z,2.47
2023-04-03T01:57:59.586Z,2.58
2023-04-03T02:03:00.921Z,2.32
2023-04-03T02:08:01.954Z,2.24
2023-04-03T02:13:03.377Z,2.19
2023-04-03T02:18:07.611Z,2.28
2023-04-03T02:23:08.968Z,2.31
2023-04-03T02:28:09.779Z,2.34
2023-04-03T02:33:10.612Z,2.32
2023-04-03T02:38:13.214Z,2.40
2023-04-03T02:43:14.210Z,2.34
2023-04-03T02:48:16.924Z,2.31
2023-04-03T02:53:18.175Z,2.16
2023-04-03T02:58:19.062Z,2.25
2023-04-03T03:03:20.032Z,2.36
2023-04-03T03:08:20.911Z,2.34
2023-04-03T03:13:21.673Z,2.38
2023-04-03T03:18:22.634Z,2.26
2023-04-03T03:23:25.689Z,2.21
2023-04-03T03:28:26.587Z,2.34
2023-04-03T03:33:27.950Z,2.36
2023-04-03T03:38:28.785Z,2.26
2023-04-03T03:43:30.278Z,2.46
2023-04-03T03:48:31.359Z,2.32
2023-04-03T03:53:32.692Z,2.22
2023-04-03T03:58:37.334Z,2.28
2023-04-03T04:03:38.678Z,2.27
2023-04-03T04:08:40.722Z,2.21
2023-04-03T04:13:42.412Z,2.23
2023-04-03T04:18:44.236Z,2.21
2023-04-03T04:23:45.800Z,2.07
2023-04-03T04:28:48.016Z,2.06
2023-04-03T04:33:51.394Z,2.02
2023-04-03T04:38:53.242Z,1.86
2023-04-03T04:43:55.239Z,1.89
2023-04-03T04:48:56.818Z,1.86
2023-04-03T04:53:58.022Z,1.82
2023-04-03T04:58:59.457Z,1.74
2023-04-03T05:04:00.852Z,1.63
2023-04-03T05:09:02.708Z,1.60
2023-04-03T05:14:06.597Z,1.43
2023-04-03T05:19:08.000Z,1.36
2023-04-03T05:24:09.566Z,1.34
2023-04-03T05:29:12.617Z,1.28
2023-04-03T05:34:14.209Z,1.41
2023-04-03T05:39:15.688Z,1.36
2023-04-03T05:44:18.141Z,1.45
2023-04-03T05:49:19.949Z,1.42
2023-04-03T05:54:25.101Z,1.38
2023-04-03T05:59:28.226Z,1.50
2023-04-03T06:04:30.808Z,1.51
2023-04-03T06:09:31.751Z,1.85
2023-04-03T06:14:33.539Z,1.87
2023-04-03T06:19:36.530Z,1.91
2023-04-03T06:24:38.358Z,1.96
2023-04-03T06:29:39.318Z,1.99
2023-04-03T06:34:40.117Z,2.11
2023-04-03T06:39:40.923Z,2.34
2023-04-03T06:44:41.677Z,2.75
2023-04-03T06:49:43.705Z,2.95
2023-04-03T06:54:45.007Z,2.74
2023-04-03T06:59:46.562Z,2.85
2023-04-03T07:04:47.949Z,2.57
2023-04-03T07:09:49.654Z,2.53
2023-04-03T07:14:50.468Z,2.57
2023-04-03T07:19:52.340Z,2.27
2023-04-03T07:24:53.133Z,2.62
2023-04-03T07:29:56.648Z,2.89
2023-04-03T07:34:57.530Z,2.80
2023-04-03T07:39:59.390Z,2.27
2023-04-03T07:45:00.341Z,2.45
2023-04-03T07:50:01.445Z,2.21
2023-04-03T07:55:02.396Z,2.60
2023-04-03T08:00:05.582Z,3.18
2023-04-03T08:05:13.434Z,3.64
2023-04-03T08:10:15.113Z,3.12
2023-04-03T08:15:16.485Z,3.20
2023-04-03T08:20:17.634Z,3.85
2023-04-03T08:25:18.438Z,4.18
2023-04-03T08:30:19.234Z,3.58
2023-04-03T08:35:21.170Z,3.39
2023-04-03T08:40:22.584Z,3.33
2023-04-03T08:45:47.117Z,3.66
2023-04-03T08:50:53.490Z,3.91
2023-04-03T08:55:56.112Z,3.89
2023-04-03T09:01:13.458Z,3.82
2023-04-03T09:06:39.355Z,3.77
2023-04-03T09:13:25.680Z,3.76
2023-04-03T09:18:34.895Z,3.44
2023-04-03T09:23:50.532Z,3.18
2023-04-03T09:28:52.547Z,3.54
2023-04-03T09:34:00.043Z,3.61
2023-04-03T09:39:16.823Z,3.86
2023-04-03T09:44:23.837Z,3.24
2023-04-03T09:49:25.750Z,3.16
2023-04-03T09:54:37.725Z,3.59
2023-04-03T09:59:44.329Z,4.23
2023-04-03T10:04:47.209Z,3.92
2023-04-03T10:09:56.742Z,3.55
2023-04-03T10:15:00.934Z,4.04
2023-04-03T10:20:47.248Z,4.19
2023-04-03T10:27:42.179Z,4.86
2023-04-03T10:33:01.665Z,4.52
2023-04-03T10:38:23.026Z,4.39
2023-04-03T10:43:42.972Z,4.99
2023-04-03T10:49:03.919Z,4.77
2023-04-03T10:54:27.109Z,4.61
2023-04-03T11:00:18.768Z,4.70
2023-04-03T11:05:50.780Z,4.47
2023-04-03T11:10:55.740Z,5.23
2023-04-03T11:15:58.461Z,5.62
2023-04-03T11:21:07.945Z,5.60
2023-04-03T11:26:12.088Z,4.84
2023-04-03T11:31:47.213Z,4.94
2023-04-03T11:36:53.191Z,5.42
2023-04-03T11:42:06.882Z,4.80
2023-04-03T11:47:51.491Z,5.01
2023-04-03T11:53:37.116Z,4.81
2023-04-03T11:58:38.152Z,5.25
2023-04-03T12:04:07.310Z,4.96
2023-04-03T12:09:31.932Z,5.08
2023-04-03T12:14:32.741Z,4.97
2023-04-03T12:19:43.978Z,6.27
2023-04-03T12:24:48.700Z,5.60
2023-04-03T12:30:11.101Z,5.64
2023-04-03T12:35:35.020Z,6.04
2023-04-03T12:43:50.690Z,5.67
2023-04-03T12:48:55.259Z,5.67
2023-04-03T12:54:14.662Z,5.26
2023-04-03T12:59:26.923Z,5.13
2023-04-03T13:04:30.721Z,4.93
2023-04-03T13:09:32.827Z,4.87
2023-04-03T13:14:33.572Z,4.86
2023-04-03T13:19:34.645Z,5.03
2023-04-03T13:24:38.357Z,4.48
2023-04-03T13:29:40.116Z,5.44
2023-04-03T13:34:43.714Z,5.58
2023-04-03T13:39:46.191Z,5.64
2023-04-03T13:44:47.647Z,5.91
2023-04-03T13:52:41.304Z,5.54
2023-04-03T13:57:57.515Z,5.47
2023-04-03T14:02:58.905Z,6.31
2023-04-03T14:08:02.294Z,6.07
2023-04-03T14:13:03.853Z,5.69
2023-04-03T14:18:06.589Z,5.64
2023-04-03T14:23:08.808Z,5.80
2023-04-03T14:28:19.404Z,5.33
2023-04-03T14:33:22.710Z,5.57
2023-04-03T14:38:30.916Z,6.51
2023-04-03T14:43:31.861Z,5.73
2023-04-03T14:48:32.835Z,5.79
2023-04-03T14:58:38.203Z,5.84
2023-04-03T15:03:39.111Z,5.39
2023-04-03T15:08:42.022Z,6.02
2023-04-03T15:13:43.081Z,6.09
2023-04-03T15:18:45.109Z,5.76
2023-04-03T15:23:45.912Z,5.50
2023-04-03T15:28:46.772Z,5.45
2023-04-03T15:33:47.535Z,5.32
2023-04-03T15:38:48.333Z,5.15
2023-04-03T15:43:49.192Z,5.04
2023-04-03T15:48:50.193Z,5.20
2023-04-03T15:53:50.998Z,5.17
2023-04-03T15:58:52.147Z,5.11
2023-04-03T16:03:53.232Z,5.34
2023-04-03T16:08:58.061Z,4.71
2023-04-03T16:13:59.660Z,4.75
2023-04-03T16:19:00.946Z,4.75
2023-04-03T16:24:03.229Z,4.79
2023-04-03T16:29:04.282Z,4.74
2023-04-03T16:34:05.110Z,4.89
2023-04-03T16:39:05.957Z,5.17
2023-04-03T16:44:07.768Z,5.18
2023-04-03T16:49:08.924Z,5.17
2023-04-03T16:54:11.754Z,4.76
2023-04-03T16:59:12.682Z,4.81
2023-04-03T17:04:13.685Z,4.89
2023-04-03T17:09:15.103Z,4.94
2023-04-03T17:14:16.091Z,4.66
2023-04-03T17:19:17.666Z,4.53
2023-04-03T17:24:18.758Z,4.44
2023-04-03T17:29:19.639Z,4.43
2023-04-03T17:34:20.967Z,4.28
2023-04-03T17:39:21.810Z,4.16
2023-04-03T17:44:22.661Z,4.22
2023-04-03T17:49:24.461Z,4.06
2023-04-03T17:54:25.249Z,3.81
2023-04-03T17:59:26.104Z,3.66
2023-04-03T18:04:30.397Z,3.52
2023-04-03T18:09:33.093Z,3.45
2023-04-03T18:14:36.626Z,3.33
2023-04-03T18:19:37.526Z,3.30
2023-04-03T18:24:38.957Z,3.29
2023-04-03T18:29:42.928Z,3.08
2023-04-03T18:34:43.800Z,2.94
2023-04-03T18:39:44.897Z,2.96
2023-04-03T18:44:49.745Z,2.92
2023-04-03T18:49:50.735Z,2.81
2023-04-03T18:54:51.809Z,2.68
2023-04-03T18:59:52.585Z,2.68
2023-04-03T19:04:55.256Z,2.48
2023-04-03T19:09:56.011Z,2.44
2023-04-03T19:14:56.865Z,2.40
2023-04-03T19:19:59.111Z,2.30
2023-04-03T19:25:00.063Z,2.22
2023-04-03T19:30:01.520Z,2.11
2023-04-03T19:35:05.075Z,2.08
2023-04-03T19:40:07.693Z,2.01
2023-04-03T19:45:11.578Z,1.96
2023-04-03T19:50:12.394Z,1.91
2023-04-03T19:55:14.022Z,1.87
2023-04-03T20:00:15.520Z,1.78
2023-04-03T20:05:16.969Z,1.71
2023-04-03T20:10:17.907Z,1.60
2023-04-03T20:15:19.068Z,1.51
2023-04-03T20:20:22.155Z,1.45
2023-04-03T20:25:39.201Z,1.48
2023-04-03T20:30:47.279Z,1.42
2023-04-03T20:35:48.362Z,1.30
2023-04-03T20:40:50.103Z,1.22
2023-04-03T20:45:51.132Z,1.22
2023-04-03T20:50:52.189Z,1.11
2023-04-03T20:56:00.652Z,1.06
2023-04-03T21:01:02.137Z,0.96
2023-04-03T21:06:03.395Z,0.98
2023-04-03T21:11:41.382Z,0.95
2023-04-03T21:16:42.606Z,0.81
2023-04-03T21:21:45.232Z,0.86
2023-04-03T21:26:46.156Z,0.79
2023-04-03T21:31:58.059Z,0.78
2023-04-03T21:37:03.840Z,0.80
2023-04-03T21:42:06.592Z,0.63
2023-04-03T21:47:07.449Z,0.62
2023-04-03T21:52:08.362Z,0.52
2023-04-03T21:57:10.937Z,0.51
2023-04-03T22:02:11.772Z,0.55
2023-04-03T22:07:13.630Z,0.43
2023-04-03T22:12:14.952Z,0.39
2023-04-03T22:17:16.234Z,0.27
2023-04-03T22:22:17.509Z,0.18
2023-04-03T22:27:18.264Z,0.08
2023-04-03T22:32:19.249Z,0.04
2023-04-03T22:37:20.011Z,-0.03
2023-04-03T22:42:21.475Z,-0.02
2023-04-03T22:47:22.335Z,-0.08
2023-04-03T22:52:23.193Z,-0.14
2023-04-03T22:57:24.249Z,-0.20
2023-04-03T23:02:25.057Z,-0.20
2023-04-03T23:07:27.064Z,-0.22
2023-04-03T23:12:27.829Z,-0.23
2023-04-03T23:17:28.736Z,-0.23
2023-04-03T23:22:29.958Z,-0.33
2023-04-03T23:27:31.244Z,-0.38
2023-04-03T23:32:32.097Z,-0.45
2023-04-03T23:37:32.888Z,-0.47
2023-04-03T23:42:33.607Z,-0.50
2023-04-03T23:47:35.770Z,-0.52
2023-04-03T23:52:36.571Z,-0.54
2023-04-03T23:57:37.376Z,-0.54
